Woodbury, Connecticut
Current Conditions -  °F | °C
As of 5:45 AM on Friday 24 Oct 2014 (Local Time) from KOXC Reporting Station
Overcast Overcast  
Wind Chill:   Ceiling: 4400
Heat Index:   Visibility: 10mi
Dew Point:   Wind: 6mph
Humidity: 71%   Direction: 330°NNW
Pressure: 29.75"   Gusts: NA
Location:  41.54°N, 73.21°W
Report Text: KOXC 240945Z 33005KT 10SM FEW015 OVC044 09/04 A2975
Loading
Personal Weather Stations






























Interactive Weather Map
Tropical Storm Tracking
New forecast layout! Learn more

10-Day Weather Forecast

Advertisements
Track Severe Weather on mobile